sensor_id;sensor_type;location;lat;lon;timestamp;P1;durP1;ratioP1;P2;durP2;ratioP2
71769;SDS011;66386;52.122;5.420;2023-04-24T00:00:38;0.40;;;0.30;;
71769;SDS011;66386;52.122;5.420;2023-04-24T00:03:06;0.98;;;0.30;;
71769;SDS011;66386;52.122;5.420;2023-04-24T00:05:34;0.50;;;0.30;;
71769;SDS011;66386;52.122;5.420;2023-04-24T00:08:00;2.85;;;0.43;;
71769;SDS011;66386;52.122;5.420;2023-04-24T00:10:27;0.60;;;0.40;;
71769;SDS011;66386;52.122;5.420;2023-04-24T00:12:53;1.15;;;0.40;;
71769;SDS011;66386;52.122;5.420;2023-04-24T00:15:20;0.60;;;0.43;;
71769;SDS011;66386;52.122;5.420;2023-04-24T00:17:46;0.63;;;0.40;;
71769;SDS011;66386;52.122;5.420;2023-04-24T00:20:13;0.90;;;0.70;;
71769;SDS011;66386;52.122;5.420;2023-04-24T00:22:40;1.30;;;0.50;;
71769;SDS011;66386;52.122;5.420;2023-04-24T00:25:07;1.90;;;0.65;;
71769;SDS011;66386;52.122;5.420;2023-04-24T00:27:34;1.48;;;0.60;;
71769;SDS011;66386;52.122;5.420;2023-04-24T00:30:03;0.90;;;0.70;;
71769;SDS011;66386;52.122;5.420;2023-04-24T00:32:29;0.98;;;0.80;;
71769;SDS011;66386;52.122;5.420;2023-04-24T00:34:56;0.70;;;0.47;;
71769;SDS011;66386;52.122;5.420;2023-04-24T00:37:22;0.85;;;0.70;;
71769;SDS011;66386;52.122;5.420;2023-04-24T00:39:49;0.70;;;0.55;;
71769;SDS011;66386;52.122;5.420;2023-04-24T00:42:15;1.83;;;0.70;;
71769;SDS011;66386;52.122;5.420;2023-04-24T00:44:41;1.63;;;0.52;;
71769;SDS011;66386;52.122;5.420;2023-04-24T00:47:08;2.37;;;0.80;;
71769;SDS011;66386;52.122;5.420;2023-04-24T00:49:35;2.90;;;0.82;;
71769;SDS011;66386;52.122;5.420;2023-04-24T00:52:02;1.33;;;0.90;;
71769;SDS011;66386;52.122;5.420;2023-04-24T00:54:34;2.90;;;1.10;;
71769;SDS011;66386;52.122;5.420;2023-04-24T00:57:02;1.50;;;1.00;;
71769;SDS011;66386;52.122;5.420;2023-04-24T00:59:29;1.20;;;0.90;;
71769;SDS011;66386;52.122;5.420;2023-04-24T01:01:55;1.38;;;1.15;;
71769;SDS011;66386;52.122;5.420;2023-04-24T01:04:23;1.45;;;1.17;;
71769;SDS011;66386;52.122;5.420;2023-04-24T01:06:50;2.42;;;1.45;;
71769;SDS011;66386;52.122;5.420;2023-04-24T01:09:18;2.30;;;1.30;;
71769;SDS011;66386;52.122;5.420;2023-04-24T01:11:46;1.90;;;1.20;;
71769;SDS011;66386;52.122;5.420;2023-04-24T01:14:13;2.63;;;1.67;;
71769;SDS011;66386;52.122;5.420;2023-04-24T01:16:39;2.20;;;1.95;;
71769;SDS011;66386;52.122;5.420;2023-04-24T01:19:07;2.00;;;1.58;;
71769;SDS011;66386;52.122;5.420;2023-04-24T01:21:36;1.50;;;1.40;;
71769;SDS011;66386;52.122;5.420;2023-04-24T01:24:04;1.93;;;1.73;;
71769;SDS011;66386;52.122;5.420;2023-04-24T01:26:31;2.17;;;1.70;;
71769;SDS011;66386;52.122;5.420;2023-04-24T01:28:58;2.20;;;1.80;;
71769;SDS011;66386;52.122;5.420;2023-04-24T01:31:25;3.30;;;1.92;;
71769;SDS011;66386;52.122;5.420;2023-04-24T01:33:52;2.08;;;1.73;;
71769;SDS011;66386;52.122;5.420;2023-04-24T01:36:19;2.00;;;1.80;;
71769;SDS011;66386;52.122;5.420;2023-04-24T01:38:49;3.38;;;1.98;;
71769;SDS011;66386;52.122;5.420;2023-04-24T01:41:16;2.42;;;2.00;;
71769;SDS011;66386;52.122;5.420;2023-04-24T01:43:42;2.40;;;2.10;;
71769;SDS011;66386;52.122;5.420;2023-04-24T01:46:09;3.97;;;2.40;;
71769;SDS011;66386;52.122;5.420;2023-04-24T01:48:36;4.10;;;2.27;;
71769;SDS011;66386;52.122;5.420;2023-04-24T01:51:02;3.67;;;2.45;;
71769;SDS011;66386;52.122;5.420;2023-04-24T01:53:29;4.07;;;2.50;;
71769;SDS011;66386;52.122;5.420;2023-04-24T01:55:55;3.28;;;2.97;;
71769;SDS011;66386;52.122;5.420;2023-04-24T01:58:22;2.70;;;2.10;;
71769;SDS011;66386;52.122;5.420;2023-04-24T02:00:48;3.33;;;2.80;;
71769;SDS011;66386;52.122;5.420;2023-04-24T02:03:15;3.55;;;2.50;;
71769;SDS011;66386;52.122;5.420;2023-04-24T02:05:43;2.97;;;2.30;;
71769;SDS011;66386;52.122;5.420;2023-04-24T02:08:11;3.15;;;2.28;;
71769;SDS011;66386;52.122;5.420;2023-04-24T02:10:37;5.03;;;2.08;;
71769;SDS011;66386;52.122;5.420;2023-04-24T02:13:03;2.80;;;2.27;;
71769;SDS011;66386;52.122;5.420;2023-04-24T02:15:30;2.92;;;2.10;;
71769;SDS011;66386;52.122;5.420;2023-04-24T02:17:57;4.63;;;1.92;;
71769;SDS011;66386;52.122;5.420;2023-04-24T02:20:23;3.28;;;2.10;;
71769;SDS011;66386;52.122;5.420;2023-04-24T02:22:50;2.50;;;1.95;;
71769;SDS011;66386;52.122;5.420;2023-04-24T02:25:16;3.07;;;1.90;;
71769;SDS011;66386;52.122;5.420;2023-04-24T02:27:43;2.70;;;2.17;;
71769;SDS011;66386;52.122;5.420;2023-04-24T02:30:09;4.35;;;1.80;;
71769;SDS011;66386;52.122;5.420;2023-04-24T02:32:36;2.38;;;1.90;;
71769;SDS011;66386;52.122;5.420;2023-04-24T02:35:03;2.08;;;1.60;;
71769;SDS011;66386;52.122;5.420;2023-04-24T02:37:29;2.40;;;2.17;;
71769;SDS011;66386;52.122;5.420;2023-04-24T02:39:56;2.83;;;1.80;;
71769;SDS011;66386;52.122;5.420;2023-04-24T02:42:22;2.80;;;1.80;;
71769;SDS011;66386;52.122;5.420;2023-04-24T02:44:49;2.30;;;1.70;;
71769;SDS011;66386;52.122;5.420;2023-04-24T02:47:17;2.35;;;1.80;;
71769;SDS011;66386;52.122;5.420;2023-04-24T02:49:43;2.80;;;2.50;;
71769;SDS011;66386;52.122;5.420;2023-04-24T02:52:10;4.75;;;2.83;;
71769;SDS011;66386;52.122;5.420;2023-04-24T02:54:37;3.50;;;2.20;;
71769;SDS011;66386;52.122;5.420;2023-04-24T02:57:03;6.43;;;2.40;;
71769;SDS011;66386;52.122;5.420;2023-04-24T02:59:29;3.20;;;2.22;;
71769;SDS011;66386;52.122;5.420;2023-04-24T03:01:56;2.30;;;1.70;;
71769;SDS011;66386;52.122;5.420;2023-04-24T03:04:22;3.63;;;2.25;;
71769;SDS011;66386;52.122;5.420;2023-04-24T03:06:49;2.97;;;2.08;;
71769;SDS011;66386;52.122;5.420;2023-04-24T03:09:19;4.15;;;2.40;;
71769;SDS011;66386;52.122;5.420;2023-04-24T03:11:45;3.38;;;2.40;;
71769;SDS011;66386;52.122;5.420;2023-04-24T03:14:11;3.27;;;2.30;;
71769;SDS011;66386;52.122;5.420;2023-04-24T03:16:38;4.68;;;2.20;;
71769;SDS011;66386;52.122;5.420;2023-04-24T03:19:04;3.25;;;2.00;;
71769;SDS011;66386;52.122;5.420;2023-04-24T03:21:31;4.50;;;1.98;;
71769;SDS011;66386;52.122;5.420;2023-04-24T03:23:57;2.80;;;1.83;;
71769;SDS011;66386;52.122;5.420;2023-04-24T03:26:24;2.63;;;2.10;;
71769;SDS011;66386;52.122;5.420;2023-04-24T03:28:51;2.83;;;2.10;;
71769;SDS011;66386;52.122;5.420;2023-04-24T03:31:17;3.28;;;2.10;;
71769;SDS011;66386;52.122;5.420;2023-04-24T03:33:45;2.50;;;1.90;;
71769;SDS011;66386;52.122;5.420;2023-04-24T03:36:11;3.85;;;1.75;;
71769;SDS011;66386;52.122;5.420;2023-04-24T03:38:38;2.53;;;2.00;;
71769;SDS011;66386;52.122;5.420;2023-04-24T03:41:04;2.92;;;2.00;;
71769;SDS011;66386;52.122;5.420;2023-04-24T03:43:30;3.63;;;2.33;;
71769;SDS011;66386;52.122;5.420;2023-04-24T03:46:00;4.75;;;2.30;;
71769;SDS011;66386;52.122;5.420;2023-04-24T03:48:27;3.50;;;2.00;;
71769;SDS011;66386;52.122;5.420;2023-04-24T03:50:53;5.23;;;2.63;;
71769;SDS011;66386;52.122;5.420;2023-04-24T03:53:19;3.72;;;2.67;;
71769;SDS011;66386;52.122;5.420;2023-04-24T03:55:46;2.90;;;2.30;;
71769;SDS011;66386;52.122;5.420;2023-04-24T03:58:13;4.00;;;2.50;;
71769;SDS011;66386;52.122;5.420;2023-04-24T04:00:42;3.60;;;2.42;;
71769;SDS011;66386;52.122;5.420;2023-04-24T04:03:10;2.83;;;1.97;;
71769;SDS011;66386;52.122;5.420;2023-04-24T04:05:37;2.97;;;2.28;;
71769;SDS011;66386;52.122;5.420;2023-04-24T04:08:03;2.42;;;1.95;;
71769;SDS011;66386;52.122;5.420;2023-04-24T04:10:30;3.22;;;2.05;;
71769;SDS011;66386;52.122;5.420;2023-04-24T04:12:56;3.15;;;2.10;;
71769;SDS011;66386;52.122;5.420;2023-04-24T04:15:23;5.80;;;2.00;;
71769;SDS011;66386;52.122;5.420;2023-04-24T04:17:49;3.25;;;2.30;;
71769;SDS011;66386;52.122;5.420;2023-04-24T04:20:16;4.78;;;2.08;;
71769;SDS011;66386;52.122;5.420;2023-04-24T04:22:42;3.03;;;2.20;;
71769;SDS011;66386;52.122;5.420;2023-04-24T04:25:09;3.40;;;1.80;;
71769;SDS011;66386;52.122;5.420;2023-04-24T04:27:37;4.23;;;2.20;;
71769;SDS011;66386;52.122;5.420;2023-04-24T04:30:05;3.05;;;2.10;;
71769;SDS011;66386;52.122;5.420;2023-04-24T04:32:31;3.85;;;2.47;;
71769;SDS011;66386;52.122;5.420;2023-04-24T04:35:02;4.18;;;2.90;;
71769;SDS011;66386;52.122;5.420;2023-04-24T04:37:30;4.28;;;2.85;;
71769;SDS011;66386;52.122;5.420;2023-04-24T04:39:57;3.87;;;2.77;;
71769;SDS011;66386;52.122;5.420;2023-04-24T04:42:26;5.10;;;2.80;;
71769;SDS011;66386;52.122;5.420;2023-04-24T04:44:54;5.18;;;2.92;;
71769;SDS011;66386;52.122;5.420;2023-04-24T04:47:23;3.72;;;2.47;;
71769;SDS011;66386;52.122;5.420;2023-04-24T04:49:50;3.47;;;2.17;;
71769;SDS011;66386;52.122;5.420;2023-04-24T04:52:19;3.67;;;2.33;;
71769;SDS011;66386;52.122;5.420;2023-04-24T04:54:46;3.95;;;2.58;;
71769;SDS011;66386;52.122;5.420;2023-04-24T04:57:12;3.35;;;2.50;;
71769;SDS011;66386;52.122;5.420;2023-04-24T04:59:39;4.40;;;2.08;;
71769;SDS011;66386;52.122;5.420;2023-04-24T05:02:07;2.78;;;1.88;;
71769;SDS011;66386;52.122;5.420;2023-04-24T05:04:35;4.43;;;2.27;;
71769;SDS011;66386;52.122;5.420;2023-04-24T05:07:01;4.97;;;2.58;;
71769;SDS011;66386;52.122;5.420;2023-04-24T05:09:28;3.20;;;2.30;;
71769;SDS011;66386;52.122;5.420;2023-04-24T05:11:55;4.30;;;2.40;;
71769;SDS011;66386;52.122;5.420;2023-04-24T05:14:22;4.63;;;2.75;;
71769;SDS011;66386;52.122;5.420;2023-04-24T05:16:49;3.37;;;2.20;;
71769;SDS011;66386;52.122;5.420;2023-04-24T05:19:15;3.08;;;2.17;;
71769;SDS011;66386;52.122;5.420;2023-04-24T05:21:42;10.52;;;2.45;;
71769;SDS011;66386;52.122;5.420;2023-04-24T05:24:08;3.50;;;2.40;;
71769;SDS011;66386;52.122;5.420;2023-04-24T05:26:35;3.50;;;2.10;;
71769;SDS011;66386;52.122;5.420;2023-04-24T05:29:02;5.10;;;2.17;;
71769;SDS011;66386;52.122;5.420;2023-04-24T05:31:28;2.20;;;1.48;;
71769;SDS011;66386;52.122;5.420;2023-04-24T05:33:55;3.20;;;1.60;;
71769;SDS011;66386;52.122;5.420;2023-04-24T05:36:21;2.78;;;1.60;;
71769;SDS011;66386;52.122;5.420;2023-04-24T05:38:48;3.80;;;1.15;;
71769;SDS011;66386;52.122;5.420;2023-04-24T05:41:14;3.10;;;1.80;;
71769;SDS011;66386;52.122;5.420;2023-04-24T05:43:41;3.92;;;1.38;;
71769;SDS011;66386;52.122;5.420;2023-04-24T05:46:07;2.67;;;1.52;;
71769;SDS011;66386;52.122;5.420;2023-04-24T05:48:34;3.13;;;1.65;;
71769;SDS011;66386;52.122;5.420;2023-04-24T05:51:01;4.30;;;1.63;;
71769;SDS011;66386;52.122;5.420;2023-04-24T05:53:27;2.70;;;1.50;;
71769;SDS011;66386;52.122;5.420;2023-04-24T05:55:54;3.97;;;1.92;;
71769;SDS011;66386;52.122;5.420;2023-04-24T05:58:20;4.22;;;1.80;;
71769;SDS011;66386;52.122;5.420;2023-04-24T06:00:46;2.92;;;1.52;;
71769;SDS011;66386;52.122;5.420;2023-04-24T06:03:14;2.88;;;1.58;;
71769;SDS011;66386;52.122;5.420;2023-04-24T06:05:40;3.23;;;1.60;;
71769;SDS011;66386;52.122;5.420;2023-04-24T06:08:07;2.42;;;1.30;;
71769;SDS011;66386;52.122;5.420;2023-04-24T06:10:33;2.17;;;1.20;;
71769;SDS011;66386;52.122;5.420;2023-04-24T06:13:00;4.78;;;1.25;;
71769;SDS011;66386;52.122;5.420;2023-04-24T06:15:29;1.55;;;1.00;;
71769;SDS011;66386;52.122;5.420;2023-04-24T06:17:58;1.97;;;0.67;;
71769;SDS011;66386;52.122;5.420;2023-04-24T06:20:25;2.00;;;0.50;;
71769;SDS011;66386;52.122;5.420;2023-04-24T06:22:53;1.50;;;0.65;;
71769;SDS011;66386;52.122;5.420;2023-04-24T06:25:19;1.27;;;0.43;;
71769;SDS011;66386;52.122;5.420;2023-04-24T06:27:46;0.93;;;0.30;;
71769;SDS011;66386;52.122;5.420;2023-04-24T06:30:12;0.67;;;0.20;;
71769;SDS011;66386;52.122;5.420;2023-04-24T06:32:39;2.15;;;0.30;;
71769;SDS011;66386;52.122;5.420;2023-04-24T06:35:06;0.38;;;0.17;;
71769;SDS011;66386;52.122;5.420;2023-04-24T06:37:34;0.22;;;0.10;;
71769;SDS011;66386;52.122;5.420;2023-04-24T06:40:00;2.33;;;0.28;;
71769;SDS011;66386;52.122;5.420;2023-04-24T06:42:27;0.60;;;0.20;;
71769;SDS011;66386;52.122;5.420;2023-04-24T06:44:53;2.00;;;0.40;;
71769;SDS011;66386;52.122;5.420;2023-04-24T06:47:20;1.83;;;1.17;;
71769;SDS011;66386;52.122;5.420;2023-04-24T06:49:46;4.10;;;1.98;;
71769;SDS011;66386;52.122;5.420;2023-04-24T06:52:13;5.97;;;2.97;;
71769;SDS011;66386;52.122;5.420;2023-04-24T06:54:41;7.17;;;3.87;;
71769;SDS011;66386;52.122;5.420;2023-04-24T06:57:08;5.38;;;4.05;;
71769;SDS011;66386;52.122;5.420;2023-04-24T06:59:34;8.63;;;4.57;;
71769;SDS011;66386;52.122;5.420;2023-04-24T07:02:01;7.93;;;4.32;;
71769;SDS011;66386;52.122;5.420;2023-04-24T07:04:29;7.60;;;4.10;;
71769;SDS011;66386;52.122;5.420;2023-04-24T07:06:56;6.67;;;4.43;;
71769;SDS011;66386;52.122;5.420;2023-04-24T07:09:24;7.78;;;4.78;;
71769;SDS011;66386;52.122;5.420;2023-04-24T07:11:51;9.13;;;5.13;;
71769;SDS011;66386;52.122;5.420;2023-04-24T07:14:19;10.07;;;4.55;;
71769;SDS011;66386;52.122;5.420;2023-04-24T07:16:46;11.93;;;4.95;;
71769;SDS011;66386;52.122;5.420;2023-04-24T07:19:13;8.63;;;5.77;;
71769;SDS011;66386;52.122;5.420;2023-04-24T07:21:40;10.32;;;5.00;;
71769;SDS011;66386;52.122;5.420;2023-04-24T07:24:07;13.07;;;5.70;;
71769;SDS011;66386;52.122;5.420;2023-04-24T07:26:37;11.82;;;5.35;;
71769;SDS011;66386;52.122;5.420;2023-04-24T07:29:05;10.55;;;5.35;;
71769;SDS011;66386;52.122;5.420;2023-04-24T07:31:32;9.80;;;5.07;;
71769;SDS011;66386;52.122;5.420;2023-04-24T07:33:58;8.77;;;4.57;;
71769;SDS011;66386;52.122;5.420;2023-04-24T07:36:25;9.02;;;4.55;;
71769;SDS011;66386;52.122;5.420;2023-04-24T07:38:52;10.35;;;4.85;;
71769;SDS011;66386;52.122;5.420;2023-04-24T07:41:19;10.38;;;4.53;;
71769;SDS011;66386;52.122;5.420;2023-04-24T07:43:46;9.97;;;4.50;;
71769;SDS011;66386;52.122;5.420;2023-04-24T07:46:13;9.32;;;4.38;;
71769;SDS011;66386;52.122;5.420;2023-04-24T07:48:39;13.18;;;4.93;;
71769;SDS011;66386;52.122;5.420;2023-04-24T07:51:06;7.88;;;4.32;;
71769;SDS011;66386;52.122;5.420;2023-04-24T07:53:32;7.57;;;4.28;;
71769;SDS011;66386;52.122;5.420;2023-04-24T07:55:59;6.70;;;4.17;;
71769;SDS011;66386;52.122;5.420;2023-04-24T07:58:25;9.30;;;4.25;;
71769;SDS011;66386;52.122;5.420;2023-04-24T08:00:52;8.02;;;5.00;;
71769;SDS011;66386;52.122;5.420;2023-04-24T08:03:18;11.65;;;4.13;;
71769;SDS011;66386;52.122;5.420;2023-04-24T08:05:46;8.82;;;4.00;;
71769;SDS011;66386;52.122;5.420;2023-04-24T08:08:13;9.50;;;4.60;;
71769;SDS011;66386;52.122;5.420;2023-04-24T08:10:39;7.32;;;4.15;;
71769;SDS011;66386;52.122;5.420;2023-04-24T08:13:06;8.63;;;4.45;;
71769;SDS011;66386;52.122;5.420;2023-04-24T08:15:33;8.27;;;3.83;;
71769;SDS011;66386;52.122;5.420;2023-04-24T08:17:59;8.05;;;4.25;;
71769;SDS011;66386;52.122;5.420;2023-04-24T08:20:26;9.00;;;3.67;;
71769;SDS011;66386;52.122;5.420;2023-04-24T08:22:52;7.78;;;3.17;;
71769;SDS011;66386;52.122;5.420;2023-04-24T08:25:18;7.53;;;2.97;;
71769;SDS011;66386;52.122;5.420;2023-04-24T08:27:45;8.45;;;2.80;;
71769;SDS011;66386;52.122;5.420;2023-04-24T08:30:12;7.78;;;2.25;;
71769;SDS011;66386;52.122;5.420;2023-04-24T08:32:39;4.07;;;1.10;;
71769;SDS011;66386;52.122;5.420;2023-04-24T08:35:05;11.32;;;2.00;;
71769;SDS011;66386;52.122;5.420;2023-04-24T08:37:35;11.18;;;2.45;;
71769;SDS011;66386;52.122;5.420;2023-04-24T08:40:27;9.38;;;2.28;;
71769;SDS011;66386;52.122;5.420;2023-04-24T08:42:53;10.70;;;1.80;;
71769;SDS011;66386;52.122;5.420;2023-04-24T08:45:21;10.43;;;1.70;;
71769;SDS011;66386;52.122;5.420;2023-04-24T08:47:48;6.03;;;1.40;;
71769;SDS011;66386;52.122;5.420;2023-04-24T08:50:15;7.35;;;2.05;;
71769;SDS011;66386;52.122;5.420;2023-04-24T08:52:42;7.15;;;1.35;;
71769;SDS011;66386;52.122;5.420;2023-04-24T08:55:09;10.25;;;1.95;;
71769;SDS011;66386;52.122;5.420;2023-04-24T08:57:35;6.47;;;1.07;;
71769;SDS011;66386;52.122;5.420;2023-04-24T09:00:04;9.38;;;1.25;;
71769;SDS011;66386;52.122;5.420;2023-04-24T09:02:32;10.65;;;1.60;;
71769;SDS011;66386;52.122;5.420;2023-04-24T09:05:01;10.27;;;1.20;;
71769;SDS011;66386;52.122;5.420;2023-04-24T09:07:29;2.80;;;0.73;;
71769;SDS011;66386;52.122;5.420;2023-04-24T09:10:01;6.57;;;1.40;;
71769;SDS011;66386;52.122;5.420;2023-04-24T09:12:28;5.38;;;0.70;;
71769;SDS011;66386;52.122;5.420;2023-04-24T09:14:55;8.13;;;1.05;;
71769;SDS011;66386;52.122;5.420;2023-04-24T09:17:23;8.18;;;1.23;;
71769;SDS011;66386;52.122;5.420;2023-04-24T09:19:53;4.38;;;1.00;;
71769;SDS011;66386;52.122;5.420;2023-04-24T09:22:19;5.53;;;1.13;;
71769;SDS011;66386;52.122;5.420;2023-04-24T09:24:47;7.22;;;0.95;;
71769;SDS011;66386;52.122;5.420;2023-04-24T09:27:14;8.73;;;1.17;;
71769;SDS011;66386;52.122;5.420;2023-04-24T09:29:53;7.35;;;1.55;;
71769;SDS011;66386;52.122;5.420;2023-04-24T09:32:23;6.53;;;1.23;;
71769;SDS011;66386;52.122;5.420;2023-04-24T09:37:39;9.00;;;1.00;;
71769;SDS011;66386;52.122;5.420;2023-04-24T09:40:08;6.75;;;1.20;;
71769;SDS011;66386;52.122;5.420;2023-04-24T09:42:39;3.45;;;1.13;;
71769;SDS011;66386;52.122;5.420;2023-04-24T09:45:09;6.93;;;0.90;;
71769;SDS011;66386;52.122;5.420;2023-04-24T09:47:41;5.50;;;1.00;;
71769;SDS011;66386;52.122;5.420;2023-04-24T09:52:39;4.95;;;0.93;;
71769;SDS011;66386;52.122;5.420;2023-04-24T09:55:16;5.70;;;0.93;;
71769;SDS011;66386;52.122;5.420;2023-04-24T09:57:55;4.40;;;0.80;;
71769;SDS011;66386;52.122;5.420;2023-04-24T10:00:26;4.93;;;0.87;;
71769;SDS011;66386;52.122;5.420;2023-04-24T10:03:00;2.80;;;0.57;;
71769;SDS011;66386;52.122;5.420;2023-04-24T10:05:29;6.07;;;0.70;;
71769;SDS011;66386;52.122;5.420;2023-04-24T10:08:03;4.30;;;1.00;;
71769;SDS011;66386;52.122;5.420;2023-04-24T10:10:34;4.78;;;0.90;;
71769;SDS011;66386;52.122;5.420;2023-04-24T10:13:04;3.47;;;0.63;;
71769;SDS011;66386;52.122;5.420;2023-04-24T10:15:30;2.85;;;0.73;;
71769;SDS011;66386;52.122;5.420;2023-04-24T10:17:58;5.45;;;0.80;;
71769;SDS011;66386;52.122;5.420;2023-04-24T10:20:26;5.32;;;0.88;;
71769;SDS011;66386;52.122;5.420;2023-04-24T10:22:58;1.75;;;0.43;;
71769;SDS011;66386;52.122;5.420;2023-04-24T10:25:27;3.57;;;0.80;;
71769;SDS011;66386;52.122;5.420;2023-04-24T10:27:56;4.65;;;0.80;;
71769;SDS011;66386;52.122;5.420;2023-04-24T10:30:26;2.53;;;0.70;;
71769;SDS011;66386;52.122;5.420;2023-04-24T10:32:54;2.63;;;0.40;;
71769;SDS011;66386;52.122;5.420;2023-04-24T10:35:22;4.07;;;0.50;;
71769;SDS011;66386;52.122;5.420;2023-04-24T10:38:05;2.17;;;0.40;;
71769;SDS011;66386;52.122;5.420;2023-04-24T10:40:35;0.95;;;0.22;;
71769;SDS011;66386;52.122;5.420;2023-04-24T10:43:02;5.22;;;0.55;;
71769;SDS011;66386;52.122;5.420;2023-04-24T10:45:32;3.72;;;0.40;;
71769;SDS011;66386;52.122;5.420;2023-04-24T10:50:47;2.00;;;0.20;;
71769;SDS011;66386;52.122;5.420;2023-04-24T10:53:18;2.05;;;0.30;;
71769;SDS011;66386;52.122;5.420;2023-04-24T10:55:50;0.52;;;0.20;;
71769;SDS011;66386;52.122;5.420;2023-04-24T10:58:24;1.60;;;0.20;;
71769;SDS011;66386;52.122;5.420;2023-04-24T11:01:01;2.88;;;0.22;;
71769;SDS011;66386;52.122;5.420;2023-04-24T11:03:28;3.37;;;0.20;;
71769;SDS011;66386;52.122;5.420;2023-04-24T11:08:37;2.75;;;0.40;;
71769;SDS011;66386;52.122;5.420;2023-04-24T11:11:12;3.88;;;0.30;;
71769;SDS011;66386;52.122;5.420;2023-04-24T11:26:58;1.75;;;0.20;;
71769;SDS011;66386;52.122;5.420;2023-04-24T11:29:42;9.23;;;0.43;;
71769;SDS011;66386;52.122;5.420;2023-04-24T11:34:46;2.13;;;0.50;;
71769;SDS011;66386;52.122;5.420;2023-04-24T11:37:13;4.13;;;0.68;;
71769;SDS011;66386;52.122;5.420;2023-04-24T11:39:40;2.28;;;0.88;;
71769;SDS011;66386;52.122;5.420;2023-04-24T11:42:07;2.47;;;0.20;;
71769;SDS011;66386;52.122;5.420;2023-04-24T11:44:36;2.75;;;0.38;;
71769;SDS011;66386;52.122;5.420;2023-04-24T11:47:07;1.42;;;0.20;;
71769;SDS011;66386;52.122;5.420;2023-04-24T11:49:37;2.03;;;0.20;;
71769;SDS011;66386;52.122;5.420;2023-04-24T11:52:04;3.75;;;0.15;;
71769;SDS011;66386;52.122;5.420;2023-04-24T11:54:31;0.37;;;0.20;;
71769;SDS011;66386;52.122;5.420;2023-04-24T11:56:57;0.30;;;0.10;;
71769;SDS011;66386;52.122;5.420;2023-04-24T11:59:24;0.68;;;0.20;;
71769;SDS011;66386;52.122;5.420;2023-04-24T12:01:51;1.42;;;0.20;;
71769;SDS011;66386;52.122;5.420;2023-04-24T12:04:17;1.05;;;0.17;;
71769;SDS011;66386;52.122;5.420;2023-04-24T12:09:40;0.52;;;0.20;;
71769;SDS011;66386;52.122;5.420;2023-04-24T12:12:09;2.10;;;0.38;;
71769;SDS011;66386;52.122;5.420;2023-04-24T12:14:42;1.80;;;0.20;;
71769;SDS011;66386;52.122;5.420;2023-04-24T12:17:35;3.38;;;0.20;;
71769;SDS011;66386;52.122;5.420;2023-04-24T12:20:06;1.63;;;0.20;;
71769;SDS011;66386;52.122;5.420;2023-04-24T12:25:19;3.83;;;0.40;;
71769;SDS011;66386;52.122;5.420;2023-04-24T12:27:52;4.32;;;0.30;;
71769;SDS011;66386;52.122;5.420;2023-04-24T12:30:39;5.38;;;0.38;;
71769;SDS011;66386;52.122;5.420;2023-04-24T12:33:10;2.90;;;0.40;;
71769;SDS011;66386;52.122;5.420;2023-04-24T12:35:37;1.77;;;0.20;;
71769;SDS011;66386;52.122;5.420;2023-04-24T12:38:11;1.25;;;0.28;;
71769;SDS011;66386;52.122;5.420;2023-04-24T12:40:39;2.83;;;0.75;;
71769;SDS011;66386;52.122;5.420;2023-04-24T12:43:14;2.08;;;0.40;;
71769;SDS011;66386;52.122;5.420;2023-04-24T12:45:44;3.80;;;0.40;;
71769;SDS011;66386;52.122;5.420;2023-04-24T12:48:13;3.22;;;0.50;;
71769;SDS011;66386;52.122;5.420;2023-04-24T12:50:40;4.03;;;0.52;;
71769;SDS011;66386;52.122;5.420;2023-04-24T12:53:10;7.05;;;0.90;;
71769;SDS011;66386;52.122;5.420;2023-04-24T12:55:37;4.60;;;0.52;;
71769;SDS011;66386;52.122;5.420;2023-04-24T12:58:03;6.63;;;1.17;;
71769;SDS011;66386;52.122;5.420;2023-04-24T13:00:30;5.57;;;0.98;;
71769;SDS011;66386;52.122;5.420;2023-04-24T13:02:56;8.18;;;0.63;;
71769;SDS011;66386;52.122;5.420;2023-04-24T13:05:23;6.35;;;0.70;;
71769;SDS011;66386;52.122;5.420;2023-04-24T13:07:50;4.60;;;0.35;;
71769;SDS011;66386;52.122;5.420;2023-04-24T13:10:17;3.93;;;0.50;;
71769;SDS011;66386;52.122;5.420;2023-04-24T13:12:43;7.28;;;0.68;;
71769;SDS011;66386;52.122;5.420;2023-04-24T13:15:12;7.05;;;0.85;;
71769;SDS011;66386;52.122;5.420;2023-04-24T13:17:38;7.55;;;1.10;;
71769;SDS011;66386;52.122;5.420;2023-04-24T13:20:05;9.98;;;1.10;;
71769;SDS011;66386;52.122;5.420;2023-04-24T13:22:32;5.00;;;0.70;;
71769;SDS011;66386;52.122;5.420;2023-04-24T13:24:58;4.75;;;0.50;;
71769;SDS011;66386;52.122;5.420;2023-04-24T13:27:25;5.57;;;1.08;;
71769;SDS011;66386;52.122;5.420;2023-04-24T13:29:52;4.65;;;0.75;;
71769;SDS011;66386;52.122;5.420;2023-04-24T13:32:18;8.77;;;0.85;;
71769;SDS011;66386;52.122;5.420;2023-04-24T13:34:45;9.83;;;1.47;;
71769;SDS011;66386;52.122;5.420;2023-04-24T13:37:11;5.60;;;1.17;;
71769;SDS011;66386;52.122;5.420;2023-04-24T13:39:38;8.07;;;0.90;;
71769;SDS011;66386;52.122;5.420;2023-04-24T13:42:05;9.48;;;0.88;;
71769;SDS011;66386;52.122;5.420;2023-04-24T13:44:31;11.35;;;1.20;;
71769;SDS011;66386;52.122;5.420;2023-04-24T13:46:58;7.97;;;1.47;;
71769;SDS011;66386;52.122;5.420;2023-04-24T13:49:25;4.97;;;0.80;;
71769;SDS011;66386;52.122;5.420;2023-04-24T13:51:53;5.57;;;1.33;;
71769;SDS011;66386;52.122;5.420;2023-04-24T13:54:21;6.25;;;0.80;;
71769;SDS011;66386;52.122;5.420;2023-04-24T13:56:49;4.30;;;0.60;;
71769;SDS011;66386;52.122;5.420;2023-04-24T13:59:16;4.07;;;0.80;;
71769;SDS011;66386;52.122;5.420;2023-04-24T14:01:43;5.03;;;0.70;;
71769;SDS011;66386;52.122;5.420;2023-04-24T14:04:11;8.85;;;1.08;;
71769;SDS011;66386;52.122;5.420;2023-04-24T14:06:38;3.22;;;0.85;;
71769;SDS011;66386;52.122;5.420;2023-04-24T14:09:05;8.48;;;1.33;;
71769;SDS011;66386;52.122;5.420;2023-04-24T14:11:33;6.23;;;1.10;;
71769;SDS011;66386;52.122;5.420;2023-04-24T14:14:00;5.32;;;1.27;;
71769;SDS011;66386;52.122;5.420;2023-04-24T14:16:27;3.33;;;0.80;;
71769;SDS011;66386;52.122;5.420;2023-04-24T14:18:55;7.35;;;1.38;;
71769;SDS011;66386;52.122;5.420;2023-04-24T14:21:22;6.20;;;1.00;;
71769;SDS011;66386;52.122;5.420;2023-04-24T14:23:48;5.30;;;1.40;;
71769;SDS011;66386;52.122;5.420;2023-04-24T14:26:15;6.20;;;1.08;;
71769;SDS011;66386;52.122;5.420;2023-04-24T14:28:41;6.55;;;1.45;;
71769;SDS011;66386;52.122;5.420;2023-04-24T14:31:08;6.50;;;1.35;;
71769;SDS011;66386;52.122;5.420;2023-04-24T14:33:35;4.63;;;1.05;;
71769;SDS011;66386;52.122;5.420;2023-04-24T14:36:04;8.67;;;1.30;;
71769;SDS011;66386;52.122;5.420;2023-04-24T14:38:32;10.52;;;1.45;;
71769;SDS011;66386;52.122;5.420;2023-04-24T14:40:58;4.25;;;1.40;;
71769;SDS011;66386;52.122;5.420;2023-04-24T14:43:33;8.30;;;1.40;;
71769;SDS011;66386;52.122;5.420;2023-04-24T14:46:01;9.15;;;1.55;;
71769;SDS011;66386;52.122;5.420;2023-04-24T14:48:28;4.97;;;1.40;;
71769;SDS011;66386;52.122;5.420;2023-04-24T14:50:55;6.68;;;1.45;;
71769;SDS011;66386;52.122;5.420;2023-04-24T14:53:21;5.82;;;1.42;;
71769;SDS011;66386;52.122;5.420;2023-04-24T14:55:48;6.45;;;1.10;;
71769;SDS011;66386;52.122;5.420;2023-04-24T14:58:15;7.03;;;1.05;;
71769;SDS011;66386;52.122;5.420;2023-04-24T15:00:41;6.83;;;1.80;;
71769;SDS011;66386;52.122;5.420;2023-04-24T15:03:08;8.15;;;1.33;;
71769;SDS011;66386;52.122;5.420;2023-04-24T15:05:35;7.90;;;1.50;;
71769;SDS011;66386;52.122;5.420;2023-04-24T15:08:02;4.97;;;1.73;;
71769;SDS011;66386;52.122;5.420;2023-04-24T15:10:29;8.18;;;1.60;;
71769;SDS011;66386;52.122;5.420;2023-04-24T15:12:55;7.60;;;1.57;;
71769;SDS011;66386;52.122;5.420;2023-04-24T15:15:22;9.65;;;1.70;;
71769;SDS011;66386;52.122;5.420;2023-04-24T15:17:49;5.93;;;1.45;;
71769;SDS011;66386;52.122;5.420;2023-04-24T15:20:15;5.53;;;1.33;;
71769;SDS011;66386;52.122;5.420;2023-04-24T15:22:42;8.65;;;1.58;;